sensor_id;sensor_type;location;lat;lon;timestamp;temperature;humidity
17489;DHT22;8861;52.644;4.734;2023-06-24T00:01:05;19.10;99.90
17489;DHT22;8861;52.644;4.734;2023-06-24T00:03:32;19.10;99.90
17489;DHT22;8861;52.644;4.734;2023-06-24T00:06:03;19.10;99.90
17489;DHT22;8861;52.644;4.734;2023-06-24T00:08:32;19.10;99.90
17489;DHT22;8861;52.644;4.734;2023-06-24T00:11:02;19.00;99.90
17489;DHT22;8861;52.644;4.734;2023-06-24T00:13:29;19.00;99.90
17489;DHT22;8861;52.644;4.734;2023-06-24T00:15:56;19.00;99.90
17489;DHT22;8861;52.644;4.734;2023-06-24T00:18:23;19.00;99.90
17489;DHT22;8861;52.644;4.734;2023-06-24T00:20:54;19.00;99.90
17489;DHT22;8861;52.644;4.734;2023-06-24T00:23:24;19.00;99.90
17489;DHT22;8861;52.644;4.734;2023-06-24T00:25:53;19.00;99.90
17489;DHT22;8861;52.644;4.734;2023-06-24T00:28:20;19.00;99.90
17489;DHT22;8861;52.644;4.734;2023-06-24T00:30:48;19.00;99.90
17489;DHT22;8861;52.644;4.734;2023-06-24T00:33:15;18.90;99.90
17489;DHT22;8861;52.644;4.734;2023-06-24T00:35:45;18.90;99.90
17489;DHT22;8861;52.644;4.734;2023-06-24T00:38:12;18.90;99.90
17489;DHT22;8861;52.644;4.734;2023-06-24T00:40:39;18.90;99.90
17489;DHT22;8861;52.644;4.734;2023-06-24T00:43:08;18.90;99.90
17489;DHT22;8861;52.644;4.734;2023-06-24T00:45:35;18.90;99.90
17489;DHT22;8861;52.644;4.734;2023-06-24T00:48:02;18.90;99.90
17489;DHT22;8861;52.644;4.734;2023-06-24T00:50:29;18.90;99.90
17489;DHT22;8861;52.644;4.734;2023-06-24T00:52:56;18.90;99.90
17489;DHT22;8861;52.644;4.734;2023-06-24T00:55:23;18.90;99.90
17489;DHT22;8861;52.644;4.734;2023-06-24T00:57:52;18.90;99.90
17489;DHT22;8861;52.644;4.734;2023-06-24T01:00:23;18.90;99.90
17489;DHT22;8861;52.644;4.734;2023-06-24T01:02:50;18.90;99.90
17489;DHT22;8861;52.644;4.734;2023-06-24T01:05:17;18.90;99.90
17489;DHT22;8861;52.644;4.734;2023-06-24T01:07:49;18.90;99.90
17489;DHT22;8861;52.644;4.734;2023-06-24T01:10:22;18.90;99.90
17489;DHT22;8861;52.644;4.734;2023-06-24T01:12:49;18.80;99.90
17489;DHT22;8861;52.644;4.734;2023-06-24T01:15:17;18.80;99.90
17489;DHT22;8861;52.644;4.734;2023-06-24T01:17:51;18.80;99.90
17489;DHT22;8861;52.644;4.734;2023-06-24T01:20:23;18.80;99.90
17489;DHT22;8861;52.644;4.734;2023-06-24T01:26:04;18.80;99.90
17489;DHT22;8861;52.644;4.734;2023-06-24T01:31:37;18.70;99.90
17489;DHT22;8861;52.644;4.734;2023-06-24T01:34:12;18.70;99.90
17489;DHT22;8861;52.644;4.734;2023-06-24T01:36:45;18.70;99.90
17489;DHT22;8861;52.644;4.734;2023-06-24T01:39:15;18.70;99.90
17489;DHT22;8861;52.644;4.734;2023-06-24T01:41:48;18.60;99.90
17489;DHT22;8861;52.644;4.734;2023-06-24T01:44:18;18.60;99.90
17489;DHT22;8861;52.644;4.734;2023-06-24T01:46:49;18.60;99.90
17489;DHT22;8861;52.644;4.734;2023-06-24T01:49:19;18.60;99.90
17489;DHT22;8861;52.644;4.734;2023-06-24T01:51:48;18.60;99.90
17489;DHT22;8861;52.644;4.734;2023-06-24T01:54:17;18.50;99.90
17489;DHT22;8861;52.644;4.734;2023-06-24T01:56:47;18.50;99.90
17489;DHT22;8861;52.644;4.734;2023-06-24T01:59:16;18.50;99.90
17489;DHT22;8861;52.644;4.734;2023-06-24T02:01:44;18.50;99.90
17489;DHT22;8861;52.644;4.734;2023-06-24T02:04:13;18.50;99.90
17489;DHT22;8861;52.644;4.734;2023-06-24T02:06:42;18.40;99.90
17489;DHT22;8861;52.644;4.734;2023-06-24T02:09:10;18.40;99.90
17489;DHT22;8861;52.644;4.734;2023-06-24T02:11:38;18.40;99.90
17489;DHT22;8861;52.644;4.734;2023-06-24T02:14:07;18.30;99.90
17489;DHT22;8861;52.644;4.734;2023-06-24T02:16:35;18.30;99.90
17489;DHT22;8861;52.644;4.734;2023-06-24T02:19:03;18.30;99.90
17489;DHT22;8861;52.644;4.734;2023-06-24T02:21:33;18.30;99.90
17489;DHT22;8861;52.644;4.734;2023-06-24T02:24:01;18.20;99.90
17489;DHT22;8861;52.644;4.734;2023-06-24T02:26:29;18.20;99.90
17489;DHT22;8861;52.644;4.734;2023-06-24T02:28:57;18.10;99.90
17489;DHT22;8861;52.644;4.734;2023-06-24T02:31:24;18.20;99.90
17489;DHT22;8861;52.644;4.734;2023-06-24T02:33:51;18.10;99.90
17489;DHT22;8861;52.644;4.734;2023-06-24T02:36:18;18.10;99.90
17489;DHT22;8861;52.644;4.734;2023-06-24T02:38:47;18.10;99.90
17489;DHT22;8861;52.644;4.734;2023-06-24T02:41:14;18.10;99.90
17489;DHT22;8861;52.644;4.734;2023-06-24T02:43:41;18.00;99.90
17489;DHT22;8861;52.644;4.734;2023-06-24T02:46:09;18.10;99.90
17489;DHT22;8861;52.644;4.734;2023-06-24T02:48:39;18.00;99.90
17489;DHT22;8861;52.644;4.734;2023-06-24T02:51:07;18.00;99.90
17489;DHT22;8861;52.644;4.734;2023-06-24T02:53:36;18.00;99.90
17489;DHT22;8861;52.644;4.734;2023-06-24T02:56:06;18.00;99.90
17489;DHT22;8861;52.644;4.734;2023-06-24T02:58:36;18.00;99.90
17489;DHT22;8861;52.644;4.734;2023-06-24T03:01:04;18.00;99.90
17489;DHT22;8861;52.644;4.734;2023-06-24T03:03:34;18.10;99.90
17489;DHT22;8861;52.644;4.734;2023-06-24T03:06:02;18.10;99.90
17489;DHT22;8861;52.644;4.734;2023-06-24T03:08:29;18.20;99.90
17489;DHT22;8861;52.644;4.734;2023-06-24T03:10:57;18.20;99.90
17489;DHT22;8861;52.644;4.734;2023-06-24T03:13:26;18.20;99.90
17489;DHT22;8861;52.644;4.734;2023-06-24T03:15:53;18.30;99.90
17489;DHT22;8861;52.644;4.734;2023-06-24T03:18:20;18.30;99.90
17489;DHT22;8861;52.644;4.734;2023-06-24T03:20:47;18.30;99.90
17489;DHT22;8861;52.644;4.734;2023-06-24T03:23:14;18.30;99.90
17489;DHT22;8861;52.644;4.734;2023-06-24T03:25:41;18.30;99.90
17489;DHT22;8861;52.644;4.734;2023-06-24T03:28:08;18.20;99.90
17489;DHT22;8861;52.644;4.734;2023-06-24T03:30:37;18.20;99.90
17489;DHT22;8861;52.644;4.734;2023-06-24T03:33:04;18.20;99.90
17489;DHT22;8861;52.644;4.734;2023-06-24T03:35:31;18.20;99.90
17489;DHT22;8861;52.644;4.734;2023-06-24T03:37:59;18.10;99.90
17489;DHT22;8861;52.644;4.734;2023-06-24T03:40:26;18.10;99.90
17489;DHT22;8861;52.644;4.734;2023-06-24T03:42:53;18.00;99.90
17489;DHT22;8861;52.644;4.734;2023-06-24T03:45:20;18.00;99.90
17489;DHT22;8861;52.644;4.734;2023-06-24T03:47:48;18.00;99.90
17489;DHT22;8861;52.644;4.734;2023-06-24T03:50:15;18.00;99.90
17489;DHT22;8861;52.644;4.734;2023-06-24T03:52:42;17.90;99.90
17489;DHT22;8861;52.644;4.734;2023-06-24T03:55:10;17.90;99.90
17489;DHT22;8861;52.644;4.734;2023-06-24T03:57:37;17.90;99.90
17489;DHT22;8861;52.644;4.734;2023-06-24T04:00:05;17.90;99.90
17489;DHT22;8861;52.644;4.734;2023-06-24T04:02:38;17.90;99.90
17489;DHT22;8861;52.644;4.734;2023-06-24T04:05:09;17.90;99.90
17489;DHT22;8861;52.644;4.734;2023-06-24T04:07:36;17.90;99.90
17489;DHT22;8861;52.644;4.734;2023-06-24T04:10:05;17.90;99.90
17489;DHT22;8861;52.644;4.734;2023-06-24T04:12:34;17.90;99.90
17489;DHT22;8861;52.644;4.734;2023-06-24T04:15:02;17.90;99.90
17489;DHT22;8861;52.644;4.734;2023-06-24T04:17:30;17.90;99.90
17489;DHT22;8861;52.644;4.734;2023-06-24T04:19:57;17.90;99.90
17489;DHT22;8861;52.644;4.734;2023-06-24T04:22:26;18.00;99.90
17489;DHT22;8861;52.644;4.734;2023-06-24T04:24:53;18.00;99.90
17489;DHT22;8861;52.644;4.734;2023-06-24T04:27:20;18.00;99.90
17489;DHT22;8861;52.644;4.734;2023-06-24T04:29:47;18.00;99.90
17489;DHT22;8861;52.644;4.734;2023-06-24T04:32:14;18.10;99.90
17489;DHT22;8861;52.644;4.734;2023-06-24T04:34:41;18.10;99.90
17489;DHT22;8861;52.644;4.734;2023-06-24T04:37:08;18.10;99.90
17489;DHT22;8861;52.644;4.734;2023-06-24T04:39:36;18.20;99.90
17489;DHT22;8861;52.644;4.734;2023-06-24T04:42:04;18.20;99.90
17489;DHT22;8861;52.644;4.734;2023-06-24T04:44:31;18.20;99.90
17489;DHT22;8861;52.644;4.734;2023-06-24T04:46:58;18.30;99.90
17489;DHT22;8861;52.644;4.734;2023-06-24T04:49:25;18.40;99.90
17489;DHT22;8861;52.644;4.734;2023-06-24T04:51:52;18.40;99.90
17489;DHT22;8861;52.644;4.734;2023-06-24T04:54:19;18.50;99.90
17489;DHT22;8861;52.644;4.734;2023-06-24T04:56:47;18.50;99.90
17489;DHT22;8861;52.644;4.734;2023-06-24T04:59:16;18.60;99.90
17489;DHT22;8861;52.644;4.734;2023-06-24T05:01:43;18.70;99.90
17489;DHT22;8861;52.644;4.734;2023-06-24T05:04:10;18.70;99.90
17489;DHT22;8861;52.644;4.734;2023-06-24T05:06:37;18.70;99.90
17489;DHT22;8861;52.644;4.734;2023-06-24T05:09:04;18.80;99.90
17489;DHT22;8861;52.644;4.734;2023-06-24T05:11:31;18.80;99.90
17489;DHT22;8861;52.644;4.734;2023-06-24T05:13:59;18.90;99.90
17489;DHT22;8861;52.644;4.734;2023-06-24T05:16:26;18.90;99.90
17489;DHT22;8861;52.644;4.734;2023-06-24T05:18:53;19.00;99.90
17489;DHT22;8861;52.644;4.734;2023-06-24T05:21:21;19.00;99.90
17489;DHT22;8861;52.644;4.734;2023-06-24T05:23:48;19.10;99.90
17489;DHT22;8861;52.644;4.734;2023-06-24T05:26:15;19.10;99.90
17489;DHT22;8861;52.644;4.734;2023-06-24T05:28:42;19.20;99.90
17489;DHT22;8861;52.644;4.734;2023-06-24T05:31:10;19.20;99.90
17489;DHT22;8861;52.644;4.734;2023-06-24T05:33:37;19.20;99.90
17489;DHT22;8861;52.644;4.734;2023-06-24T05:36:04;19.30;99.90
17489;DHT22;8861;52.644;4.734;2023-06-24T05:38:32;19.30;99.90
17489;DHT22;8861;52.644;4.734;2023-06-24T05:40:59;19.30;99.90
17489;DHT22;8861;52.644;4.734;2023-06-24T05:43:28;19.30;99.90
17489;DHT22;8861;52.644;4.734;2023-06-24T05:45:55;19.40;99.90
17489;DHT22;8861;52.644;4.734;2023-06-24T05:48:23;19.50;99.90
17489;DHT22;8861;52.644;4.734;2023-06-24T05:50:50;19.50;99.90
17489;DHT22;8861;52.644;4.734;2023-06-24T05:53:17;19.60;99.90
17489;DHT22;8861;52.644;4.734;2023-06-24T05:55:44;19.60;99.90
17489;DHT22;8861;52.644;4.734;2023-06-24T05:58:11;19.60;99.90
17489;DHT22;8861;52.644;4.734;2023-06-24T06:00:38;19.70;99.90
17489;DHT22;8861;52.644;4.734;2023-06-24T06:03:05;19.80;99.90
17489;DHT22;8861;52.644;4.734;2023-06-24T06:05:33;19.80;99.90
17489;DHT22;8861;52.644;4.734;2023-06-24T06:08:01;19.80;99.90
17489;DHT22;8861;52.644;4.734;2023-06-24T06:10:28;19.90;99.90
17489;DHT22;8861;52.644;4.734;2023-06-24T06:12:55;19.90;99.90
17489;DHT22;8861;52.644;4.734;2023-06-24T06:15:22;20.00;99.90
17489;DHT22;8861;52.644;4.734;2023-06-24T06:17:50;20.00;99.90
17489;DHT22;8861;52.644;4.734;2023-06-24T06:20:17;20.00;99.90
17489;DHT22;8861;52.644;4.734;2023-06-24T06:22:45;20.10;99.90
17489;DHT22;8861;52.644;4.734;2023-06-24T06:25:13;20.10;99.90
17489;DHT22;8861;52.644;4.734;2023-06-24T06:27:40;20.20;99.90
17489;DHT22;8861;52.644;4.734;2023-06-24T06:30:07;20.20;99.90
17489;DHT22;8861;52.644;4.734;2023-06-24T06:32:34;20.20;99.90
17489;DHT22;8861;52.644;4.734;2023-06-24T06:35:02;20.20;99.90
17489;DHT22;8861;52.644;4.734;2023-06-24T06:37:29;20.30;99.90
17489;DHT22;8861;52.644;4.734;2023-06-24T06:39:57;20.30;99.90
17489;DHT22;8861;52.644;4.734;2023-06-24T06:42:24;20.30;99.90
17489;DHT22;8861;52.644;4.734;2023-06-24T06:44:51;20.30;99.90
17489;DHT22;8861;52.644;4.734;2023-06-24T06:47:18;20.30;99.90
17489;DHT22;8861;52.644;4.734;2023-06-24T06:49:45;20.40;99.90
17489;DHT22;8861;52.644;4.734;2023-06-24T06:52:12;20.40;99.90
17489;DHT22;8861;52.644;4.734;2023-06-24T06:54:39;20.40;99.90
17489;DHT22;8861;52.644;4.734;2023-06-24T06:57:07;20.40;99.90
17489;DHT22;8861;52.644;4.734;2023-06-24T06:59:34;20.40;99.90
17489;DHT22;8861;52.644;4.734;2023-06-24T07:02:01;20.40;99.90
17489;DHT22;8861;52.644;4.734;2023-06-24T07:04:28;20.40;99.90
17489;DHT22;8861;52.644;4.734;2023-06-24T07:06:56;20.50;99.90
17489;DHT22;8861;52.644;4.734;2023-06-24T07:09:23;20.50;99.90
17489;DHT22;8861;52.644;4.734;2023-06-24T07:11:50;20.50;99.90
17489;DHT22;8861;52.644;4.734;2023-06-24T07:14:18;20.50;99.90
17489;DHT22;8861;52.644;4.734;2023-06-24T07:16:45;20.60;99.90
17489;DHT22;8861;52.644;4.734;2023-06-24T07:19:12;20.60;99.90
17489;DHT22;8861;52.644;4.734;2023-06-24T07:21:40;20.60;99.90
17489;DHT22;8861;52.644;4.734;2023-06-24T07:24:07;20.60;99.90
17489;DHT22;8861;52.644;4.734;2023-06-24T07:26:34;20.70;99.90
17489;DHT22;8861;52.644;4.734;2023-06-24T07:29:01;20.70;99.90
17489;DHT22;8861;52.644;4.734;2023-06-24T07:31:29;20.80;99.90
17489;DHT22;8861;52.644;4.734;2023-06-24T07:33:56;20.80;99.90
17489;DHT22;8861;52.644;4.734;2023-06-24T07:36:23;20.80;99.90
17489;DHT22;8861;52.644;4.734;2023-06-24T07:38:50;20.90;99.90
17489;DHT22;8861;52.644;4.734;2023-06-24T07:41:17;20.90;99.90
17489;DHT22;8861;52.644;4.734;2023-06-24T07:43:44;20.90;99.90
17489;DHT22;8861;52.644;4.734;2023-06-24T07:46:11;21.00;99.90
17489;DHT22;8861;52.644;4.734;2023-06-24T07:48:39;21.00;99.90
17489;DHT22;8861;52.644;4.734;2023-06-24T07:51:06;21.10;99.90
17489;DHT22;8861;52.644;4.734;2023-06-24T07:53:34;21.10;99.90
17489;DHT22;8861;52.644;4.734;2023-06-24T07:56:01;21.20;99.90
17489;DHT22;8861;52.644;4.734;2023-06-24T07:58:28;21.20;99.90
17489;DHT22;8861;52.644;4.734;2023-06-24T08:00:55;21.30;99.90
17489;DHT22;8861;52.644;4.734;2023-06-24T08:03:24;21.30;99.90
17489;DHT22;8861;52.644;4.734;2023-06-24T08:05:53;21.30;99.90
17489;DHT22;8861;52.644;4.734;2023-06-24T08:08:20;21.30;99.90
17489;DHT22;8861;52.644;4.734;2023-06-24T08:10:47;21.40;99.90
17489;DHT22;8861;52.644;4.734;2023-06-24T08:13:14;21.40;99.90
17489;DHT22;8861;52.644;4.734;2023-06-24T08:15:42;21.40;99.90
17489;DHT22;8861;52.644;4.734;2023-06-24T08:18:09;21.40;99.90
17489;DHT22;8861;52.644;4.734;2023-06-24T08:20:36;21.40;99.90
17489;DHT22;8861;52.644;4.734;2023-06-24T08:23:04;21.40;99.90
17489;DHT22;8861;52.644;4.734;2023-06-24T08:25:31;21.40;99.90
17489;DHT22;8861;52.644;4.734;2023-06-24T08:27:58;21.50;99.90
17489;DHT22;8861;52.644;4.734;2023-06-24T08:30:25;21.50;99.90
17489;DHT22;8861;52.644;4.734;2023-06-24T08:32:52;21.50;99.90
17489;DHT22;8861;52.644;4.734;2023-06-24T08:35:19;21.60;99.90
17489;DHT22;8861;52.644;4.734;2023-06-24T08:37:46;21.60;99.90
17489;DHT22;8861;52.644;4.734;2023-06-24T08:40:15;21.60;99.90
17489;DHT22;8861;52.644;4.734;2023-06-24T08:42:43;21.60;99.90
17489;DHT22;8861;52.644;4.734;2023-06-24T08:45:10;21.70;99.90
17489;DHT22;8861;52.644;4.734;2023-06-24T08:47:38;21.70;99.90
17489;DHT22;8861;52.644;4.734;2023-06-24T08:50:11;21.70;99.90
17489;DHT22;8861;52.644;4.734;2023-06-24T08:52:38;21.70;99.90
17489;DHT22;8861;52.644;4.734;2023-06-24T08:55:12;21.70;99.90
17489;DHT22;8861;52.644;4.734;2023-06-24T08:57:41;21.70;99.90
17489;DHT22;8861;52.644;4.734;2023-06-24T09:00:09;21.70;99.90
17489;DHT22;8861;52.644;4.734;2023-06-24T09:02:37;21.70;99.90
17489;DHT22;8861;52.644;4.734;2023-06-24T09:05:04;21.60;99.90
17489;DHT22;8861;52.644;4.734;2023-06-24T09:07:32;21.60;99.90
17489;DHT22;8861;52.644;4.734;2023-06-24T09:09:59;21.60;99.90
17489;DHT22;8861;52.644;4.734;2023-06-24T09:12:27;21.60;99.90
17489;DHT22;8861;52.644;4.734;2023-06-24T09:14:56;21.60;99.90
17489;DHT22;8861;52.644;4.734;2023-06-24T09:17:23;21.60;99.90
17489;DHT22;8861;52.644;4.734;2023-06-24T09:19:50;21.60;99.90
17489;DHT22;8861;52.644;4.734;2023-06-24T09:22:17;21.70;99.90
17489;DHT22;8861;52.644;4.734;2023-06-24T09:24:45;21.70;99.90
17489;DHT22;8861;52.644;4.734;2023-06-24T09:27:13;21.70;99.90
17489;DHT22;8861;52.644;4.734;2023-06-24T09:29:42;21.80;99.90
17489;DHT22;8861;52.644;4.734;2023-06-24T09:32:11;21.80;99.90
17489;DHT22;8861;52.644;4.734;2023-06-24T09:34:38;21.90;99.90
17489;DHT22;8861;52.644;4.734;2023-06-24T09:37:05;21.90;99.90
17489;DHT22;8861;52.644;4.734;2023-06-24T09:39:37;21.90;99.90
17489;DHT22;8861;52.644;4.734;2023-06-24T09:42:05;22.00;99.90
17489;DHT22;8861;52.644;4.734;2023-06-24T09:44:33;22.10;99.90
17489;DHT22;8861;52.644;4.734;2023-06-24T09:47:01;22.10;99.90
17489;DHT22;8861;52.644;4.734;2023-06-24T09:49:30;22.10;99.90
17489;DHT22;8861;52.644;4.734;2023-06-24T09:51:58;22.20;99.90
17489;DHT22;8861;52.644;4.734;2023-06-24T09:54:26;22.20;99.90
17489;DHT22;8861;52.644;4.734;2023-06-24T09:56:55;22.20;99.90
17489;DHT22;8861;52.644;4.734;2023-06-24T09:59:25;22.20;99.90
17489;DHT22;8861;52.644;4.734;2023-06-24T10:01:54;22.30;99.90
17489;DHT22;8861;52.644;4.734;2023-06-24T10:04:21;22.30;99.90
17489;DHT22;8861;52.644;4.734;2023-06-24T10:06:50;22.30;99.90
17489;DHT22;8861;52.644;4.734;2023-06-24T10:09:17;22.40;99.90
17489;DHT22;8861;52.644;4.734;2023-06-24T10:11:46;22.40;99.90
17489;DHT22;8861;52.644;4.734;2023-06-24T10:14:14;22.50;99.90
17489;DHT22;8861;52.644;4.734;2023-06-24T10:16:41;22.50;99.90
17489;DHT22;8861;52.644;4.734;2023-06-24T10:19:08;22.50;99.90
17489;DHT22;8861;52.644;4.734;2023-06-24T10:21:45;22.60;99.90
17489;DHT22;8861;52.644;4.734;2023-06-24T10:24:30;22.60;99.90
17489;DHT22;8861;52.644;4.734;2023-06-24T10:27:02;22.60;99.90
17489;DHT22;8861;52.644;4.734;2023-06-24T10:29:33;22.60;99.90
17489;DHT22;8861;52.644;4.734;2023-06-24T10:32:06;22.60;99.90
17489;DHT22;8861;52.644;4.734;2023-06-24T10:34:43;22.70;99.90
17489;DHT22;8861;52.644;4.734;2023-06-24T10:37:12;22.70;99.90
17489;DHT22;8861;52.644;4.734;2023-06-24T10:39:51;22.70;99.90
17489;DHT22;8861;52.644;4.734;2023-06-24T10:42:30;22.80;99.90
17489;DHT22;8861;52.644;4.734;2023-06-24T10:44:59;22.90;99.90
17489;DHT22;8861;52.644;4.734;2023-06-24T10:47:27;22.90;99.90
17489;DHT22;8861;52.644;4.734;2023-06-24T10:49:55;22.90;99.90
17489;DHT22;8861;52.644;4.734;2023-06-24T10:52:23;22.90;99.90
17489;DHT22;8861;52.644;4.734;2023-06-24T10:54:53;23.00;99.90
17489;DHT22;8861;52.644;4.734;2023-06-24T10:57:21;23.00;99.90
17489;DHT22;8861;52.644;4.734;2023-06-24T10:59:50;22.90;99.90
17489;DHT22;8861;52.644;4.734;2023-06-24T11:02:18;22.90;99.90
17489;DHT22;8861;52.644;4.734;2023-06-24T11:04:46;22.90;99.90
17489;DHT22;8861;52.644;4.734;2023-06-24T11:07:14;23.00;99.90
17489;DHT22;8861;52.644;4.734;2023-06-24T11:09:41;23.00;99.90
17489;DHT22;8861;52.644;4.734;2023-06-24T11:12:10;23.00;99.90
17489;DHT22;8861;52.644;4.734;2023-06-24T11:14:38;23.10;99.90
17489;DHT22;8861;52.644;4.734;2023-06-24T11:17:06;23.20;99.90
17489;DHT22;8861;52.644;4.734;2023-06-24T11:19:33;23.40;99.90
17489;DHT22;8861;52.644;4.734;2023-06-24T11:22:04;23.40;99.90
17489;DHT22;8861;52.644;4.734;2023-06-24T11:24:32;23.40;99.90
17489;DHT22;8861;52.644;4.734;2023-06-24T11:26:59;23.50;99.90
17489;DHT22;8861;52.644;4.734;2023-06-24T11:29:30;23.60;99.90
17489;DHT22;8861;52.644;4.734;2023-06-24T11:31:58;23.70;99.90
17489;DHT22;8861;52.644;4.734;2023-06-24T11:34:25;23.90;99.90
17489;DHT22;8861;52.644;4.734;2023-06-24T11:36:52;23.90;99.90
17489;DHT22;8861;52.644;4.734;2023-06-24T11:39:23;24.10;99.90
17489;DHT22;8861;52.644;4.734;2023-06-24T11:41:52;24.20;99.90
17489;DHT22;8861;52.644;4.734;2023-06-24T11:44:19;24.30;99.90
17489;DHT22;8861;52.644;4.734;2023-06-24T11:46:48;24.30;99.90
17489;DHT22;8861;52.644;4.734;2023-06-24T11:49:15;24.20;99.90
17489;DHT22;8861;52.644;4.734;2023-06-24T11:51:47;24.20;99.90
17489;DHT22;8861;52.644;4.734;2023-06-24T11:54:16;24.20;99.90
17489;DHT22;8861;52.644;4.734;2023-06-24T11:56:44;24.20;99.90
17489;DHT22;8861;52.644;4.734;2023-06-24T11:59:18;24.30;99.90
17489;DHT22;8861;52.644;4.734;2023-06-24T12:01:53;24.30;99.90
17489;DHT22;8861;52.644;4.734;2023-06-24T12:04:26;24.50;99.90
17489;DHT22;8861;52.644;4.734;2023-06-24T12:06:53;24.60;99.90
17489;DHT22;8861;52.644;4.734;2023-06-24T12:09:21;24.80;99.90
17489;DHT22;8861;52.644;4.734;2023-06-24T12:11:48;24.90;99.90
17489;DHT22;8861;52.644;4.734;2023-06-24T12:14:15;25.00;99.90
17489;DHT22;8861;52.644;4.734;2023-06-24T12:16:42;25.10;99.90
17489;DHT22;8861;52.644;4.734;2023-06-24T12:19:10;25.20;99.90
17489;DHT22;8861;52.644;4.734;2023-06-24T12:21:37;25.10;99.90
17489;DHT22;8861;52.644;4.734;2023-06-24T12:24:05;25.00;99.90
17489;DHT22;8861;52.644;4.734;2023-06-24T12:26:32;25.10;99.90
17489;DHT22;8861;52.644;4.734;2023-06-24T12:28:59;25.50;99.90
17489;DHT22;8861;52.644;4.734;2023-06-24T12:31:26;26.30;99.90
17489;DHT22;8861;52.644;4.734;2023-06-24T12:33:53;27.60;99.90
17489;DHT22;8861;52.644;4.734;2023-06-24T12:36:22;29.10;99.90
17489;DHT22;8861;52.644;4.734;2023-06-24T12:38:49;30.30;99.90
17489;DHT22;8861;52.644;4.734;2023-06-24T12:41:16;31.30;99.90
17489;DHT22;8861;52.644;4.734;2023-06-24T12:43:43;31.70;99.90
17489;DHT22;8861;52.644;4.734;2023-06-24T12:46:10;32.00;99.90
17489;DHT22;8861;52.644;4.734;2023-06-24T12:48:37;32.50;99.90
17489;DHT22;8861;52.644;4.734;2023-06-24T12:51:04;32.60;99.90
17489;DHT22;8861;52.644;4.734;2023-06-24T12:53:33;31.90;99.90
17489;DHT22;8861;52.644;4.734;2023-06-24T12:56:00;30.90;99.90
17489;DHT22;8861;52.644;4.734;2023-06-24T12:58:27;29.60;99.90
17489;DHT22;8861;52.644;4.734;2023-06-24T13:00:54;28.50;99.90
17489;DHT22;8861;52.644;4.734;2023-06-24T13:03:21;27.70;99.90
17489;DHT22;8861;52.644;4.734;2023-06-24T13:05:48;27.00;99.90
17489;DHT22;8861;52.644;4.734;2023-06-24T13:08:15;26.60;99.90
17489;DHT22;8861;52.644;4.734;2023-06-24T13:10:43;26.40;99.90
17489;DHT22;8861;52.644;4.734;2023-06-24T13:13:10;26.10;99.90
17489;DHT22;8861;52.644;4.734;2023-06-24T13:15:37;26.00;99.90
17489;DHT22;8861;52.644;4.734;2023-06-24T13:18:04;26.00;99.90
17489;DHT22;8861;52.644;4.734;2023-06-24T13:20:31;26.00;99.90
17489;DHT22;8861;52.644;4.734;2023-06-24T13:22:58;25.90;99.90
17489;DHT22;8861;52.644;4.734;2023-06-24T13:25:25;25.90;99.90
17489;DHT22;8861;52.644;4.734;2023-06-24T13:27:54;25.90;99.90
17489;DHT22;8861;52.644;4.734;2023-06-24T13:30:21;25.90;99.90
17489;DHT22;8861;52.644;4.734;2023-06-24T13:32:48;26.00;99.90
17489;DHT22;8861;52.644;4.734;2023-06-24T13:35:15;26.10;99.90
17489;DHT22;8861;52.644;4.734;2023-06-24T13:37:42;26.20;99.90
17489;DHT22;8861;52.644;4.734;2023-06-24T13:40:10;26.10;99.90
17489;DHT22;8861;52.644;4.734;2023-06-24T13:42:38;26.10;99.90
17489;DHT22;8861;52.644;4.734;2023-06-24T13:45:07;26.00;99.90
17489;DHT22;8861;52.644;4.734;2023-06-24T13:47:34;25.90;99.90
17489;DHT22;8861;52.644;4.734;2023-06-24T13:50:01;26.00;99.90
17489;DHT22;8861;52.644;4.734;2023-06-24T13:52:28;26.10;99.90
17489;DHT22;8861;52.644;4.734;2023-06-24T13:54:55;26.20;99.90
17489;DHT22;8861;52.644;4.734;2023-06-24T13:57:22;26.40;99.90
17489;DHT22;8861;52.644;4.734;2023-06-24T13:59:49;26.40;99.90
17489;DHT22;8861;52.644;4.734;2023-06-24T14:02:18;26.50;99.90
17489;DHT22;8861;52.644;4.734;2023-06-24T14:04:45;26.50;99.90
17489;DHT22;8861;52.644;4.734;2023-06-24T14:07:13;26.90;99.90
17489;DHT22;8861;52.644;4.734;2023-06-24T14:09:40;27.60;99.90
17489;DHT22;8861;52.644;4.734;2023-06-24T14:12:09;28.60;99.90
17489;DHT22;8861;52.644;4.734;2023-06-24T14:14:36;29.80;99.90
17489;DHT22;8861;52.644;4.734;2023-06-24T14:17:05;31.30;99.90
17489;DHT22;8861;52.644;4.734;2023-06-24T14:19:37;32.80;99.90
17489;DHT22;8861;52.644;4.734;2023-06-24T14:22:05;33.80;99.90
17489;DHT22;8861;52.644;4.734;2023-06-24T14:24:32;34.30;99.90
17489;DHT22;8861;52.644;4.734;2023-06-24T14:26:59;34.30;99.90
17489;DHT22;8861;52.644;4.734;2023-06-24T14:29:27;33.60;99.90
17489;DHT22;8861;52.644;4.734;2023-06-24T14:31:54;32.90;99.90
17489;DHT22;8861;52.644;4.734;2023-06-24T14:34:21;32.30;99.90
17489;DHT22;8861;52.644;4.734;2023-06-24T14:36:49;31.80;99.90
17489;DHT22;8861;52.644;4.734;2023-06-24T14:39:16;31.80;99.90
17489;DHT22;8861;52.644;4.734;2023-06-24T14:41:44;32.40;99.90
17489;DHT22;8861;52.644;4.734;2023-06-24T14:44:11;33.60;99.90
17489;DHT22;8861;52.644;4.734;2023-06-24T14:46:38;34.60;99.90
17489;DHT22;8861;52.644;4.734;2023-06-24T14:49:05;35.40;99.90
17489;DHT22;8861;52.644;4.734;2023-06-24T14:51:33;36.00;99.90
17489;DHT22;8861;52.644;4.734;2023-06-24T14:54:01;36.30;99.90
17489;DHT22;8861;52.644;4.734;2023-06-24T14:56:28;36.60;99.90
17489;DHT22;8861;52.644;4.734;2023-06-24T14:58:56;36.80;99.90
17489;DHT22;8861;52.644;4.734;2023-06-24T15:01:23;37.00;99.90
17489;DHT22;8861;52.644;4.734;2023-06-24T15:03:50;37.20;99.90
17489;DHT22;8861;52.644;4.734;2023-06-24T15:06:17;36.90;99.90
17489;DHT22;8861;52.644;4.734;2023-06-24T15:08:44;36.80;99.90
17489;DHT22;8861;52.644;4.734;2023-06-24T15:11:13;36.50;99.90
17489;DHT22;8861;52.644;4.734;2023-06-24T15:13:40;36.10;99.90
17489;DHT22;8861;52.644;4.734;2023-06-24T15:16:07;35.40;99.90
17489;DHT22;8861;52.644;4.734;2023-06-24T15:18:34;34.40;99.90
17489;DHT22;8861;52.644;4.734;2023-06-24T15:21:01;33.60;99.90
17489;DHT22;8861;52.644;4.734;2023-06-24T15:23:28;33.00;99.90
17489;DHT22;8861;52.644;4.734;2023-06-24T15:25:55;32.40;99.90
17489;DHT22;8861;52.644;4.734;2023-06-24T15:28:23;32.00;99.90
17489;DHT22;8861;52.644;4.734;2023-06-24T15:30:52;31.60;99.90
17489;DHT22;8861;52.644;4.734;2023-06-24T15:33:19;31.20;99.90
17489;DHT22;8861;52.644;4.734;2023-06-24T15:35:46;30.90;99.90
17489;DHT22;8861;52.644;4.734;2023-06-24T15:38:13;30.50;99.90
17489;DHT22;8861;52.644;4.734;2023-06-24T15:40:40;30.30;99.90
17489;DHT22;8861;52.644;4.734;2023-06-24T15:43:08;29.90;99.90
17489;DHT22;8861;52.644;4.734;2023-06-24T15:45:38;29.70;99.90
17489;DHT22;8861;52.644;4.734;2023-06-24T15:48:05;29.50;99.90
17489;DHT22;8861;52.644;4.734;2023-06-24T15:50:32;29.40;99.90
17489;DHT22;8861;52.644;4.734;2023-06-24T15:52:59;29.40;99.90
17489;DHT22;8861;52.644;4.734;2023-06-24T15:55:26;29.30;99.90